Time;durP1;ratioP1;P1;durP2;ratioP2;P2;SDS_P1;SDS_P2;PMS_P1;PMS_P2;Temp;Humidity;BMP_temperature;BMP_pressure;BME280_temperature;BME280_humidity;BME280_pressure;Samples;Min_cycle;Max_cycle;Signal;HPM_P1;HPM_P2
2021/08/22 00:01:15;;;;;;;;;;;;;;;19.45;63.34;101001.50;5117039;28;938;-54
2021/08/22 00:03:41;;;;;;;;;;;;;;;19.63;59.16;100988.16;5116803;28;751;-47
2021/08/22 00:06:06;;;;;;;;;;;;;;;19.54;62.57;100987.09;5116799;28;747;-54
2021/08/22 00:08:32;;;;;;;;;;;;;;;20.13;63.74;100988.78;5116964;28;1077;-44
2021/08/22 00:10:57;;;;;;;;;;;;;;;20.61;62.88;100987.13;5116726;28;776;-54
2021/08/22 00:13:23;;;;;;;;;;;;;;;20.79;62.29;100989.13;5116766;28;846;-51
2021/08/22 00:15:48;;;;;;;;;;;;;;;20.01;64.42;100985.59;5116920;28;815;-50
2021/08/22 00:18:17;;;;;;;;;;;;;;;19.97;65.03;100984.53;5116503;28;1977;-54
2021/08/22 00:20:42;;;;;;;;;;;;;;;19.49;63.37;100975.00;5116519;28;764;-46
2021/08/22 00:23:07;;;;;;;;;;;;;;;19.07;61.27;100979.19;5116656;28;811;-54
2021/08/22 00:25:33;;;;;;;;;;;;;;;19.87;61.90;100984.66;5116798;28;751;-45
2021/08/22 00:27:58;;;;;;;;;;;;;;;20.38;62.69;100984.06;5116700;28;751;-54
2021/08/22 00:30:24;;;;;;;;;;;;;;;20.71;62.64;100984.25;5116258;28;794;-45
2021/08/22 00:32:49;;;;;;;;;;;;;;;20.51;63.12;100977.84;5116442;28;962;-55
2021/08/22 00:35:14;;;;;;;;;;;;;;;19.82;65.34;100982.75;5116456;28;836;-46
2021/08/22 00:37:40;;;;;;;;;;;;;;;19.74;65.18;100978.66;5116505;28;839;-53
2021/08/22 00:40:06;;;;;;;;;;;;;;;19.45;62.07;100981.41;5116309;28;1976;-55
2021/08/22 00:42:35;;;;;;;;;;;;;;;19.61;60.65;100982.09;5116393;28;815;-53
2021/08/22 00:45:04;;;;;;;;;;;;;;;20.17;62.38;100980.72;5116390;28;763;-54
2021/08/22 00:47:32;;;;;;;;;;;;;;;20.43;63.82;100975.75;5116407;28;950;-53
2021/08/22 00:49:58;;;;;;;;;;;;;;;20.83;62.10;100987.41;5098096;28;882;-54
2021/08/22 00:52:23;;;;;;;;;;;;;;;20.79;62.05;100983.59;5097474;28;867;-55
2021/08/22 00:54:49;;;;;;;;;;;;;;;20.69;62.02;100983.72;5097598;28;836;-54
2021/08/22 00:57:14;;;;;;;;;;;;;;;20.00;64.61;100983.94;5116561;28;791;-55
2021/08/22 00:59:40;;;;;;;;;;;;;;;19.79;64.21;100980.53;5116060;28;1905;-55
2021/08/22 01:02:05;;;;;;;;;;;;;;;19.64;59.59;100978.72;5116216;28;976;-46
2021/08/22 01:04:35;;;;;;;;;;;;;;;19.76;57.22;100984.69;5116458;28;820;-52
2021/08/22 01:07:16;;;;;;;;;;;;;;;20.26;59.35;100981.75;5097491;28;1052;-53
2021/08/22 01:09:44;;;;;;;;;;;;;;;20.58;61.65;100990.47;5116514;28;859;-47
2021/08/22 01:12:30;;;;;;;;;;;;;;;20.84;62.61;100989.03;5097804;28;904;-53
2021/08/22 01:14:56;;;;;;;;;;;;;;;20.95;61.85;100989.72;5115339;28;1042;-55
2021/08/22 01:17:22;;;;;;;;;;;;;;;19.85;65.51;100986.88;5097593;28;1038;-45
2021/08/22 01:19:51;;;;;;;;;;;;;;;19.97;64.93;100984.53;5098188;28;1902;-55
2021/08/22 01:22:19;;;;;;;;;;;;;;;19.34;62.50;100983.41;5115594;28;747;-45
2021/08/22 01:24:48;;;;;;;;;;;;;;;19.64;59.19;100981.50;5116575;28;832;-55
2021/08/22 01:27:13;;;;;;;;;;;;;;;20.34;60.74;100975.56;5098296;28;776;-54
2021/08/22 01:30:02;;;;;;;;;;;;;;;20.63;62.22;100985.69;5097706;28;814;-54
2021/08/22 01:32:39;;;;;;;;;;;;;;;20.70;63.01;100982.63;5102133;28;1318;-45
2021/08/22 01:35:05;;;;;;;;;;;;;;;20.26;63.62;100981.75;5115902;28;798;-45
2021/08/22 01:37:31;;;;;;;;;;;;;;;19.88;65.46;100980.75;5116124;28;827;-55
2021/08/22 01:39:56;;;;;;;;;;;;;;;19.77;63.87;100975.31;5097326;28;1981;-55
2021/08/22 01:42:21;;;;;;;;;;;;;;;19.38;61.10;100981.72;5115463;28;991;-55
2021/08/22 01:44:47;;;;;;;;;;;;;;;19.36;58.24;100981.16;5097459;28;966;-55
2021/08/22 01:47:12;;;;;;;;;;;;;;;20.18;59.85;100985.97;5116614;28;1089;-54
2021/08/22 01:49:38;;;;;;;;;;;;;;;20.49;61.77;100984.78;5119253;28;819;-55
2021/08/22 01:52:04;;;;;;;;;;;;;;;20.45;63.73;100976.25;5119756;28;787;-55
2021/08/22 01:54:30;;;;;;;;;;;;;;;20.91;62.27;100985.09;5119715;28;842;-55
2021/08/22 01:56:55;;;;;;;;;;;;;;;21.00;61.68;100972.28;5100778;28;918;-55
2021/08/22 01:59:20;;;;;;;;;;;;;;;19.96;64.92;100961.66;5118935;28;1969;-55
2021/08/22 02:01:46;;;;;;;;;;;;;;;19.91;64.75;100969.13;5118867;28;1028;-55
2021/08/22 02:04:23;;;;;;;;;;;;;;;19.35;62.52;100967.66;5119630;28;791;-55
2021/08/22 02:06:49;;;;;;;;;;;;;;;19.32;60.76;100975.41;5100385;28;1219;-54
2021/08/22 02:09:20;;;;;;;;;;;;;;;19.77;62.74;100980.84;5100441;28;1226;-54
2021/08/22 02:11:56;;;;;;;;;;;;;;;20.29;63.52;100978.38;5099772;28;895;-54
2021/08/22 02:14:24;;;;;;;;;;;;;;;20.74;63.00;100978.13;5101186;28;878;-55
2021/08/22 02:16:49;;;;;;;;;;;;;;;20.90;61.92;100983.44;5118804;28;1005;-55
2021/08/22 02:19:15;;;;;;;;;;;;;;;20.10;64.72;100975.56;5100598;28;1955;-54
2021/08/22 02:21:43;;;;;;;;;;;;;;;19.80;64.80;100980.28;5119184;28;815;-54
2021/08/22 02:24:09;;;;;;;;;;;;;;;19.51;61.34;100976.66;5118626;28;747;-55
2021/08/22 02:26:34;;;;;;;;;;;;;;;19.74;59.33;100981.44;5100780;28;768;-55
2021/08/22 02:29:00;;;;;;;;;;;;;;;20.31;61.23;100978.94;5118883;28;811;-55
2021/08/22 02:31:29;;;;;;;;;;;;;;;20.52;62.89;100984.19;5118434;28;1036;-55
2021/08/22 02:34:03;;;;;;;;;;;;;;;20.80;62.54;100979.72;5118784;28;756;-55
2021/08/22 02:36:28;;;;;;;;;;;;;;;20.36;63.31;100983.56;5118990;28;822;-56
2021/08/22 02:38:54;;;;;;;;;;;;;;;19.93;65.09;100977.97;5118386;28;1909;-45
2021/08/22 02:41:20;;;;;;;;;;;;;;;19.64;64.22;100976.81;5118588;28;819;-56
2021/08/22 02:43:45;;;;;;;;;;;;;;;19.41;61.01;100985.84;5118442;28;760;-55
2021/08/22 02:46:10;;;;;;;;;;;;;;;19.85;58.84;100978.59;5118507;28;735;-54
2021/08/22 02:48:36;;;;;;;;;;;;;;;20.33;60.70;100976.69;5118679;28;954;-54
2021/08/22 02:51:02;;;;;;;;;;;;;;;20.42;63.09;100979.63;5117869;28;787;-54
2021/08/22 02:53:27;;;;;;;;;;;;;;;20.86;62.64;100980.47;5118522;28;751;-54
2021/08/22 02:55:52;;;;;;;;;;;;;;;20.66;62.65;100974.09;5118458;28;791;-55
2021/08/22 02:58:19;;;;;;;;;;;;;;;19.97;65.05;100967.97;5117415;28;1966;-54
2021/08/22 03:00:44;;;;;;;;;;;;;;;19.91;64.48;100981.00;5118519;28;748;-54
2021/08/22 03:03:10;;;;;;;;;;;;;;;19.69;60.66;100978.69;5117659;28;1008;-54
2021/08/22 03:05:35;;;;;;;;;;;;;;;19.83;58.41;100979.69;5117758;28;748;-55
2021/08/22 03:08:01;;;;;;;;;;;;;;;20.14;61.03;100984.91;5118118;28;1068;-55
2021/08/22 03:10:26;;;;;;;;;;;;;;;19.95;64.10;100978.47;5118091;28;850;-55
2021/08/22 03:12:52;;;;;;;;;;;;;;;20.70;63.20;100985.38;5117477;28;752;-55
2021/08/22 03:15:17;;;;;;;;;;;;;;;20.66;62.62;100981.53;5117792;28;502;-46
2021/08/22 03:17:43;;;;;;;;;;;;;;;20.43;63.57;100980.44;5118106;28;974;-47
2021/08/22 03:20:08;;;;;;;;;;;;;;;20.17;63.27;100977.97;5117549;28;1996;-56
2021/08/22 03:22:34;;;;;;;;;;;;;;;20.32;58.10;100982.50;5116766;28;1095;-54
2021/08/22 03:24:59;;;;;;;;;;;;;;;19.79;58.45;100980.53;5117522;28;806;-53
2021/08/22 03:27:25;;;;;;;;;;;;;;;19.78;60.56;100982.50;5117299;28;1059;-55
2021/08/22 03:29:50;;;;;;;;;;;;;;;20.11;60.94;100981.91;5117443;28;747;-51
2021/08/22 03:32:16;;;;;;;;;;;;;;;20.03;60.29;100977.03;5117219;28;1009;-55
2021/08/22 03:34:41;;;;;;;;;;;;;;;19.71;59.67;100981.16;5117097;28;824;-49
2021/08/22 03:37:06;;;;;;;;;;;;;;;19.80;58.64;100983.03;5117904;28;755;-57
2021/08/22 03:39:32;;;;;;;;;;;;;;;19.70;58.32;100985.88;5117215;28;1977;-53
2021/08/22 03:41:57;;;;;;;;;;;;;;;19.55;58.00;100980.50;5116857;28;818;-48
2021/08/22 03:44:23;;;;;;;;;;;;;;;19.54;57.84;100981.59;5117268;28;816;-57
2021/08/22 03:46:48;;;;;;;;;;;;;;;19.33;57.91;100970.72;5116903;28;1009;-56
2021/08/22 03:49:13;;;;;;;;;;;;;;;19.43;57.95;100987.22;5117376;28;764;-56
2021/08/22 03:51:39;;;;;;;;;;;;;;;19.32;58.16;100985.59;5117453;28;752;-57
2021/08/22 03:54:04;;;;;;;;;;;;;;;19.27;57.85;100985.66;5116578;28;859;-56
2021/08/22 03:56:30;;;;;;;;;;;;;;;19.30;57.44;100988.66;5116161;28;1033;-58
2021/08/22 03:58:56;;;;;;;;;;;;;;;19.22;57.69;100988.44;5117542;28;1964;-63
2021/08/22 04:01:22;;;;;;;;;;;;;;;19.15;57.67;100991.53;5116734;28;1020;-46
2021/08/22 04:03:59;;;;;;;;;;;;;;;19.24;57.37;100989.81;5083758;28;1295;-58
2021/08/22 04:06:37;;;;;;;;;;;;;;;19.20;57.66;100983.22;5098197;28;1325;-44
2021/08/22 04:09:03;;;;;;;;;;;;;;;19.39;57.06;100993.56;5117210;28;774;-55
2021/08/22 04:11:29;;;;;;;;;;;;;;;19.32;57.06;100994.72;5116103;28;894;-55
2021/08/22 04:13:54;;;;;;;;;;;;;;;19.38;56.88;100997.44;5116532;28;851;-55
2021/08/22 04:16:19;;;;;;;;;;;;;;;19.37;56.77;100999.38;5117311;28;891;-56
2021/08/22 04:18:45;;;;;;;;;;;;;;;19.31;58.10;101000.53;5116889;28;1909;-57
2021/08/22 04:21:10;;;;;;;;;;;;;;;18.81;59.90;101000.50;5116387;28;826;-44
2021/08/22 04:23:37;;;;;;;;;;;;;;;18.56;60.08;101005.00;5116448;28;1056;-56
2021/08/22 04:26:02;;;;;;;;;;;;;;;18.06;60.06;100999.41;5116964;28;764;-57
2021/08/22 04:28:28;;;;;;;;;;;;;;;19.20;57.77;100994.25;5097788;28;1018;-56
2021/08/22 04:30:53;;;;;;;;;;;;;;;19.86;57.65;101002.31;5116767;28;851;-56
2021/08/22 04:33:18;;;;;;;;;;;;;;;20.20;58.77;101009.69;5115965;28;974;-52
2021/08/22 04:35:44;;;;;;;;;;;;;;;20.57;59.73;101011.75;5116260;28;803;-59
2021/08/22 04:38:09;;;;;;;;;;;;;;;19.71;64.26;101006.00;5116710;28;743;-58
2021/08/22 04:40:36;;;;;;;;;;;;;;;19.62;65.61;101005.81;5116131;28;1901;-61
2021/08/22 04:43:02;;;;;;;;;;;;;;;19.58;63.14;101016.56;5115681;28;1102;-46
2021/08/22 04:45:27;;;;;;;;;;;;;;;19.79;59.79;101006.22;5116499;28;803;-58
2021/08/22 04:47:53;;;;;;;;;;;;;;;19.88;60.01;101014.72;5115591;28;969;-58
2021/08/22 04:50:18;;;;;;;;;;;;;;;19.85;60.95;101008.94;5116420;28;847;-47
2021/08/22 04:52:43;;;;;;;;;;;;;;;20.24;57.84;101016.28;5117186;28;768;-56
2021/08/22 04:55:09;;;;;;;;;;;;;;;20.27;56.09;101010.16;5115965;28;971;-56
2021/08/22 04:57:34;;;;;;;;;;;;;;;20.45;59.85;101006.63;5116407;28;847;-57
2021/08/22 05:00:00;;;;;;;;;;;;;;;20.70;61.98;101007.47;5116299;28;1905;-58
2021/08/22 05:02:25;;;;;;;;;;;;;;;20.78;64.14;101017.06;5116003;28;1021;-44
2021/08/22 05:04:51;;;;;;;;;;;;;;;20.98;64.51;101018.72;5116187;28;858;-48
2021/08/22 05:07:16;;;;;;;;;;;;;;;21.08;64.70;101018.56;5116726;28;1039;-53
2021/08/22 05:09:41;;;;;;;;;;;;;;;20.38;65.06;101011.69;5116199;28;736;-47
2021/08/22 05:12:07;;;;;;;;;;;;;;;19.74;60.10;101017.28;5115972;28;779;-47
2021/08/22 05:14:33;;;;;;;;;;;;;;;19.87;59.28;101012.25;5116280;28;743;-58
2021/08/22 05:16:59;;;;;;;;;;;;;;;19.81;60.46;101015.03;5115852;28;1069;-58
2021/08/22 05:19:24;;;;;;;;;;;;;;;19.67;61.03;101014.03;5116494;28;1914;-58
2021/08/22 05:21:50;;;;;;;;;;;;;;;20.15;60.16;101011.41;5118279;28;815;-58
2021/08/22 05:24:15;;;;;;;;;;;;;;;20.24;59.01;101019.03;5119613;28;813;-62
2021/08/22 05:26:41;;;;;;;;;;;;;;;20.32;58.11;101015.66;5119963;28;846;-59
2021/08/22 05:29:06;;;;;;;;;;;;;;;20.05;58.42;101014.28;5119973;28;893;-59
2021/08/22 05:31:31;;;;;;;;;;;;;;;20.11;58.24;101018.63;5119739;28;954;-45
2021/08/22 05:33:57;;;;;;;;;;;;;;;20.23;57.79;101012.72;5119653;28;794;-55
2021/08/22 05:36:22;;;;;;;;;;;;;;;20.16;58.01;101020.50;5119511;28;846;-62
2021/08/22 05:38:48;;;;;;;;;;;;;;;20.34;57.74;101017.00;5119730;28;1909;-58
2021/08/22 05:41:13;;;;;;;;;;;;;;;20.12;58.31;101025.78;5119474;28;842;-60
2021/08/22 05:43:39;;;;;;;;;;;;;;;20.03;58.87;101019.25;5119719;28;863;-61
2021/08/22 05:46:04;;;;;;;;;;;;;;;20.17;58.37;101020.22;5119462;28;827;-59
2021/08/22 05:48:30;;;;;;;;;;;;;;;19.54;60.58;101020.22;5119452;28;962;-60
2021/08/22 05:50:55;;;;;;;;;;;;;;;19.25;61.55;101018.19;5119251;28;775;-46
2021/08/22 05:53:21;;;;;;;;;;;;;;;18.76;61.74;101022.56;5119528;28;775;-49
2021/08/22 05:55:46;;;;;;;;;;;;;;;18.51;61.78;101010.56;5119031;28;759;-48
2021/08/22 05:58:11;;;;;;;;;;;;;;;19.65;60.67;101027.28;5119351;28;851;-49
2021/08/22 06:00:38;;;;;;;;;;;;;;;20.13;60.00;101016.41;5119340;28;1909;-60
2021/08/22 06:03:04;;;;;;;;;;;;;;;20.74;59.92;101029.84;5118649;28;966;-60
2021/08/22 06:05:29;;;;;;;;;;;;;;;20.09;63.63;101026.38;5118999;28;839;-53
2021/08/22 06:07:55;;;;;;;;;;;;;;;20.09;65.00;101020.84;5119299;28;1044;-59
2021/08/22 06:10:20;;;;;;;;;;;;;;;19.88;64.13;101024.91;5119200;28;818;-58
2021/08/22 06:12:46;;;;;;;;;;;;;;;19.91;58.87;101025.16;5119367;28;838;-59
2021/08/22 06:15:11;;;;;;;;;;;;;;;20.16;58.30;101021.34;5118986;28;771;-50
2021/08/22 06:17:37;;;;;;;;;;;;;;;20.75;61.60;101021.25;5118498;28;1018;-58
2021/08/22 06:20:02;;;;;;;;;;;;;;;21.04;63.72;101009.22;5118590;28;1909;-46
2021/08/22 06:22:28;;;;;;;;;;;;;;;20.70;66.08;101013.00;5119077;28;747;-58
2021/08/22 06:24:53;;;;;;;;;;;;;;;20.38;68.36;101014.47;5118964;28;784;-55
2021/08/22 06:27:19;;;;;;;;;;;;;;;20.23;66.64;101017.38;5118568;28;808;-56
2021/08/22 06:29:44;;;;;;;;;;;;;;;19.62;61.37;101009.38;5118959;28;787;-58
2021/08/22 06:32:10;;;;;;;;;;;;;;;19.53;60.02;101013.88;5117711;28;1021;-58
2021/08/22 06:34:35;;;;;;;;;;;;;;;19.77;60.51;101016.69;5118201;28;847;-58
2021/08/22 06:37:00;;;;;;;;;;;;;;;19.92;60.56;101020.47;5118817;28;804;-58
2021/08/22 06:39:26;;;;;;;;;;;;;;;19.87;59.58;101018.59;5117020;28;2635;-57
2021/08/22 06:41:51;;;;;;;;;;;;;;;20.25;58.35;101028.97;5117547;28;1566;-52
2021/08/22 06:44:17;;;;;;;;;;;;;;;20.34;59.46;101022.53;5118622;28;1589;-58
2021/08/22 06:46:42;;;;;;;;;;;;;;;20.81;60.64;101028.34;5117842;28;1570;-58
2021/08/22 06:49:08;;;;;;;;;;;;;;;20.24;64.34;101024.56;5118010;28;1709;-56
2021/08/22 06:51:34;;;;;;;;;;;;;;;20.08;65.99;101033.00;5118361;28;728;-61
2021/08/22 06:54:00;;;;;;;;;;;;;;;19.99;63.03;101021.78;5117991;28;776;-48
2021/08/22 06:56:25;;;;;;;;;;;;;;;20.29;57.04;101024.53;5118125;28;800;-58
2021/08/22 06:58:51;;;;;;;;;;;;;;;20.35;59.44;101031.63;5118578;28;1887;-62
2021/08/22 07:01:16;;;;;;;;;;;;;;;20.46;61.87;101035.91;5117666;28;958;-46
2021/08/22 07:03:42;;;;;;;;;;;;;;;20.66;62.53;101032.09;5118143;28;798;-48
2021/08/22 07:06:07;;;;;;;;;;;;;;;20.64;62.34;101037.09;5117939;28;822;-61
2021/08/22 07:08:32;;;;;;;;;;;;;;;20.68;61.11;101037.38;5117276;28;1256;-47
2021/08/22 07:10:58;;;;;;;;;;;;;;;20.60;59.99;101036.03;5117973;28;751;-59
2021/08/22 07:13:23;;;;;;;;;;;;;;;20.43;59.52;101041.22;5118020;28;752;-50
2021/08/22 07:15:49;;;;;;;;;;;;;;;20.50;58.43;101039.75;5117330;28;1715;-58
2021/08/22 07:18:14;;;;;;;;;;;;;;;19.47;61.31;101043.44;5117669;28;946;-58
2021/08/22 07:20:40;;;;;;;;;;;;;;;19.35;61.50;101045.72;5117523;28;1910;-58
2021/08/22 07:23:05;;;;;;;;;;;;;;;18.80;60.52;101046.53;5117405;28;835;-59
2021/08/22 07:25:32;;;;;;;;;;;;;;;18.89;61.50;101049.56;5118347;28;972;-46
2021/08/22 07:27:58;;;;;;;;;;;;;;;19.37;61.40;101046.25;5117602;28;803;-60
2021/08/22 07:30:25;;;;;;;;;;;;;;;19.83;59.42;101051.44;5117341;28;855;-56
2021/08/22 07:32:51;;;;;;;;;;;;;;;19.88;59.05;101047.84;5117242;28;966;-61
2021/08/22 07:35:16;;;;;;;;;;;;;;;20.17;57.93;101056.13;5117610;28;854;-62
2021/08/22 07:37:42;;;;;;;;;;;;;;;20.09;57.82;101048.47;5116908;28;783;-59
2021/08/22 07:40:07;;;;;;;;;;;;;;;20.10;57.71;101052.03;5117392;28;1979;-59
2021/08/22 07:42:33;;;;;;;;;;;;;;;20.16;57.25;101048.94;5117514;28;787;-60
2021/08/22 07:44:58;;;;;;;;;;;;;;;20.15;57.39;101050.06;5116372;28;739;-60
2021/08/22 07:47:24;;;;;;;;;;;;;;;20.06;57.65;101045.44;5116920;28;970;-58
2021/08/22 07:49:50;;;;;;;;;;;;;;;19.69;58.89;101041.34;5117265;28;1664;-57
2021/08/22 07:52:15;;;;;;;;;;;;;;;19.38;60.25;101042.38;5116936;28;755;-58
2021/08/22 07:54:41;;;;;;;;;;;;;;;18.98;59.86;101044.25;5117636;28;754;-60
2021/08/22 07:57:07;;;;;;;;;;;;;;;18.74;61.27;101049.59;5117146;28;494;-58
2021/08/22 07:59:33;;;;;;;;;;;;;;;19.31;61.42;101044.66;5116696;28;1969;-58
2021/08/22 08:01:59;;;;;;;;;;;;;;;19.70;60.22;101051.25;5116483;28;1028;-56
2021/08/22 08:04:24;;;;;;;;;;;;;;;19.79;59.77;101041.25;5117042;28;752;-47
2021/08/22 08:06:50;;;;;;;;;;;;;;;19.53;60.78;101043.38;5116932;28;1030;-57
2021/08/22 08:09:15;;;;;;;;;;;;;;;19.40;61.16;101048.41;5116630;28;795;-45
2021/08/22 08:11:40;;;;;;;;;;;;;;;19.05;60.92;101041.19;5116551;28;782;-51
2021/08/22 08:14:06;;;;;;;;;;;;;;;18.40;59.89;101034.53;5116737;28;767;-50
2021/08/22 08:16:31;;;;;;;;;;;;;;;19.02;62.70;101045.34;5116352;28;998;-51
2021/08/22 08:18:57;;;;;;;;;;;;;;;19.35;63.08;101044.88;5116529;28;1913;-46
2021/08/22 08:21:22;;;;;;;;;;;;;;;19.89;62.97;101037.59;5116643;28;859;-51
2021/08/22 08:23:48;;;;;;;;;;;;;;;20.10;63.57;101041.81;5116492;28;884;-60
2021/08/22 08:26:13;;;;;;;;;;;;;;;19.97;65.13;101045.25;5116715;28;756;-50
2021/08/22 08:28:40;;;;;;;;;;;;;;;19.87;64.87;101037.91;5116653;28;827;-59
2021/08/22 08:31:05;;;;;;;;;;;;;;;19.42;61.81;101037.94;5116693;28;803;-59
2021/08/22 08:33:32;;;;;;;;;;;;;;;19.36;61.09;101032.75;5116499;28;958;-59
2021/08/22 08:35:57;;;;;;;;;;;;;;;19.67;63.54;101041.63;5116348;28;887;-48
2021/08/22 08:38:23;;;;;;;;;;;;;;;19.91;64.28;101036.22;5115989;28;791;-60
2021/08/22 08:40:48;;;;;;;;;;;;;;;20.00;63.79;101033.63;5116329;28;1981;-49
2021/08/22 08:43:15;;;;;;;;;;;;;;;20.15;62.04;101041.78;5116733;28;810;-58
2021/08/22 08:45:44;;;;;;;;;;;;;;;19.66;62.56;101028.94;5116601;28;778;-58
2021/08/22 08:48:10;;;;;;;;;;;;;;;19.40;62.69;101026.34;5097589;28;962;-51
2021/08/22 08:50:38;;;;;;;;;;;;;;;19.17;61.51;101024.31;5116241;28;1677;-59
2021/08/22 08:53:11;;;;;;;;;;;;;;;18.33;60.38;101020.25;5116304;28;811;-59
2021/08/22 08:55:43;;;;;;;;;;;;;;;19.08;62.74;101029.59;5098567;28;855;-56
2021/08/22 08:58:08;;;;;;;;;;;;;;;19.44;61.67;101027.44;5102386;28;787;-61
2021/08/22 09:00:35;;;;;;;;;;;;;;;19.68;60.45;101018.44;5120457;28;1921;-60
2021/08/22 09:03:01;;;;;;;;;;;;;;;19.86;59.46;101025.22;5120104;28;1017;-60
2021/08/22 09:05:29;;;;;;;;;;;;;;;19.91;58.99;101018.81;5120580;28;826;-48
2021/08/22 09:08:13;;;;;;;;;;;;;;;19.85;58.94;101020.78;5119847;28;1157;-59
2021/08/22 09:10:50;;;;;;;;;;;;;;;19.39;60.54;101018.38;5120320;28;798;-59
2021/08/22 09:13:28;;;;;;;;;;;;;;;19.41;60.53;101014.22;5120380;28;791;-60
2021/08/22 09:15:54;;;;;;;;;;;;;;;18.80;59.93;101007.97;5119857;28;791;-48
2021/08/22 09:18:25;;;;;;;;;;;;;;;19.29;60.85;101019.28;5120097;28;978;-61
2021/08/22 09:21:03;;;;;;;;;;;;;;;19.94;59.38;101009.97;5119711;28;1990;-60
2021/08/22 09:23:47;;;;;;;;;;;;;;;20.13;58.64;101010.03;5120507;28;795;-49
2021/08/22 09:26:15;;;;;;;;;;;;;;;20.35;57.86;101002.06;5120437;28;779;-59
2021/08/22 09:29:00;;;;;;;;;;;;;;;19.63;60.35;101007.47;5119543;28;927;-59
2021/08/22 09:31:44;;;;;;;;;;;;;;;19.47;61.07;101004.81;5119938;28;1009;-60
2021/08/22 09:34:28;;;;;;;;;;;;;;;19.01;60.37;100999.59;5099518;28;779;-60
2021/08/22 09:37:12;;;;;;;;;;;;;;;19.01;61.14;101007.06;5099482;28;747;-60
2021/08/22 09:39:56;;;;;;;;;;;;;;;19.94;60.01;101002.50;5116931;28;1905;-60
2021/08/22 09:42:40;;;;;;;;;;;;;;;20.37;59.94;100995.41;5119450;28;724;-50
2021/08/22 09:45:24;;;;;;;;;;;;;;;20.17;62.61;101000.91;5119497;28;791;-55
2021/08/22 09:48:08;;;;;;;;;;;;;;;19.91;64.82;101002.25;5119637;28;1017;-61
2021/08/22 09:50:53;;;;;;;;;;;;;;;19.49;61.65;101005.34;5119366;28;1613;-60
2021/08/22 09:53:30;;;;;;;;;;;;;;;19.27;58.02;100994.75;5119448;28;811;-60
2021/08/22 09:56:14;;;;;;;;;;;;;;;19.92;60.99;101003.91;5118760;28;955;-60
2021/08/22 09:58:58;;;;;;;;;;;;;;;20.35;61.95;100990.19;5119212;28;1910;-47
2021/08/22 10:01:36;;;;;;;;;;;;;;;20.27;62.39;100971.50;5118922;28;962;-51
2021/08/22 10:04:20;;;;;;;;;;;;;;;20.59;60.71;100995.69;5119406;28;776;-47
2021/08/22 10:06:48;;;;;;;;;;;;;;;20.43;60.32;100992.31;5118585;28;1118;-60
2021/08/22 10:09:14;;;;;;;;;;;;;;;19.93;61.15;100992.56;5118232;28;807;-50
2021/08/22 10:11:40;;;;;;;;;;;;;;;19.43;62.61;100987.22;5118966;28;835;-62
2021/08/22 10:14:08;;;;;;;;;;;;;;;19.46;61.53;100983.88;5100706;28;800;-63
2021/08/22 10:16:34;;;;;;;;;;;;;;;18.75;60.66;100990.63;5118768;28;951;-62
2021/08/22 10:19:03;;;;;;;;;;;;;;;18.46;60.73;100992.13;5100277;28;1894;-61
2021/08/22 10:21:28;;;;;;;;;;;;;;;19.65;62.05;100983.16;5118622;28;791;-58
2021/08/22 10:23:58;;;;;;;;;;;;;;;20.31;62.88;100989.13;5119049;28;1052;-60
2021/08/22 10:26:42;;;;;;;;;;;;;;;20.79;62.42;100993.81;5119324;28;776;-60
2021/08/22 10:29:09;;;;;;;;;;;;;;;20.22;64.95;100988.97;5118732;28;823;-59
2021/08/22 10:31:50;;;;;;;;;;;;;;;20.15;65.73;100977.47;5118100;28;962;-56
2021/08/22 10:34:22;;;;;;;;;;;;;;;19.64;63.19;100979.56;5119481;28;759;-64
2021/08/22 10:36:47;;;;;;;;;;;;;;;19.05;59.70;100977.81;5118423;28;799;-61
2021/08/22 10:39:30;;;;;;;;;;;;;;;19.98;61.21;100980.69;5118873;28;1890;-57
2021/08/22 10:42:01;;;;;;;;;;;;;;;20.37;62.11;100981.63;5118763;28;712;-62
2021/08/22 10:44:33;;;;;;;;;;;;;;;20.34;63.01;100988.53;5118643;28;819;-59
2021/08/22 10:46:59;;;;;;;;;;;;;;;20.16;62.27;100990.97;5118237;28;934;-52
2021/08/22 10:49:43;;;;;;;;;;;;;;;20.07;61.56;100989.94;5118518;28;1598;-58
2021/08/22 10:52:23;;;;;;;;;;;;;;;19.80;61.15;100983.03;5117787;28;803;-58
2021/08/22 10:55:07;;;;;;;;;;;;;;;19.43;62.19;100989.97;5118481;28;878;-59
2021/08/22 10:57:42;;;;;;;;;;;;;;;19.32;60.98;100985.59;5117832;28;827;-60
2021/08/22 11:00:21;;;;;;;;;;;;;;;18.55;60.40;100988.78;5117917;28;1886;-47
2021/08/22 11:02:47;;;;;;;;;;;;;;;19.34;62.46;100983.41;5118363;28;1021;-47
2021/08/22 11:05:13;;;;;;;;;;;;;;;19.93;60.00;100989.00;5117943;28;731;-56
2021/08/22 11:07:39;;;;;;;;;;;;;;;19.94;59.51;100990.66;5118067;28;1220;-57
2021/08/22 11:10:04;;;;;;;;;;;;;;;20.02;59.00;100991.94;5118360;28;771;-56
2021/08/22 11:12:32;;;;;;;;;;;;;;;19.69;59.92;100989.75;5099174;28;1320;-57
2021/08/22 11:14:59;;;;;;;;;;;;;;;19.36;60.93;100989.44;5117977;28;839;-56
2021/08/22 11:17:24;;;;;;;;;;;;;;;19.33;60.60;100987.25;5118041;28;1005;-56
2021/08/22 11:19:50;;;;;;;;;;;;;;;18.52;60.29;100994.84;5116885;28;1918;-57
2021/08/22 11:22:25;;;;;;;;;;;;;;;19.36;61.73;100988.63;5118052;28;788;-57
2021/08/22 11:24:51;;;;;;;;;;;;;;;19.99;59.56;100999.69;5117672;28;859;-59
2021/08/22 11:27:20;;;;;;;;;;;;;;;20.05;59.21;100997.72;5117518;28;771;-58
2021/08/22 11:29:53;;;;;;;;;;;;;;;20.25;58.55;101002.19;5117650;28;894;-57
2021/08/22 11:32:18;;;;;;;;;;;;;;;19.58;60.86;100999.22;5117401;28;961;-52
2021/08/22 11:34:43;;;;;;;;;;;;;;;19.55;61.23;100991.53;5117175;28;509;-57
2021/08/22 11:37:12;;;;;;;;;;;;;;;19.19;60.76;100987.09;5117535;28;755;-58
2021/08/22 11:39:38;;;;;;;;;;;;;;;18.90;60.30;100992.50;5117445;28;1906;-59
2021/08/22 11:42:03;;;;;;;;;;;;;;;19.69;61.39;100992.50;5116851;28;764;-58
2021/08/22 11:44:29;;;;;;;;;;;;;;;19.78;60.85;100987.16;5117576;28;744;-57
2021/08/22 11:46:56;;;;;;;;;;;;;;;20.20;59.35;100990.38;5117564;28;958;-57
2021/08/22 11:49:22;;;;;;;;;;;;;;;19.92;59.86;100998.38;5116562;28;1553;-57
2021/08/22 11:51:49;;;;;;;;;;;;;;;19.48;61.61;100989.09;5117161;28;783;-58
2021/08/22 11:54:14;;;;;;;;;;;;;;;19.44;61.42;100990.78;5098413;28;910;-57
2021/08/22 11:56:39;;;;;;;;;;;;;;;18.74;60.52;101002.75;5116824;28;955;-57
2021/08/22 11:59:21;;;;;;;;;;;;;;;19.18;62.36;100987.38;5117128;28;1905;-56
2021/08/22 12:01:46;;;;;;;;;;;;;;;19.80;61.07;100990.50;5116434;28;954;-58
2021/08/22 12:04:16;;;;;;;;;;;;;;;20.00;59.97;101000.50;5116720;28;752;-57
2021/08/22 12:06:42;;;;;;;;;;;;;;;20.27;59.11;100994.44;5098866;28;1173;-47
2021/08/22 12:09:16;;;;;;;;;;;;;;;20.12;59.49;100997.38;5116837;28;816;-48
2021/08/22 12:11:41;;;;;;;;;;;;;;;19.60;61.31;100991.47;5116555;28;881;-53
2021/08/22 12:14:14;;;;;;;;;;;;;;;19.53;61.75;100990.97;5098873;28;775;-47
2021/08/22 12:16:40;;;;;;;;;;;;;;;18.97;61.16;100991.09;5116268;28;974;-53
2021/08/22 12:19:23;;;;;;;;;;;;;;;18.73;59.55;100993.69;5116903;28;1905;-60
2021/08/22 12:21:49;;;;;;;;;;;;;;;19.35;62.81;100990.56;5116758;28;828;-62
2021/08/22 12:24:21;;;;;;;;;;;;;;;19.65;62.26;100983.16;5098698;28;830;-56
2021/08/22 12:26:59;;;;;;;;;;;;;;;19.85;61.42;100989.63;5116685;28;835;-53
2021/08/22 12:29:31;;;;;;;;;;;;;;;19.71;61.54;100981.97;5116394;28;807;-50
2021/08/22 12:32:19;;;;;;;;;;;;;;;19.62;61.93;100983.72;5115842;28;969;-46
2021/08/22 12:34:44;;;;;;;;;;;;;;;19.34;61.42;100986.16;5116513;28;842;-52
2021/08/22 12:37:14;;;;;;;;;;;;;;;18.61;60.53;100987.66;5098740;28;755;-51
2021/08/22 12:39:39;;;;;;;;;;;;;;;19.38;62.43;100987.22;5116590;28;1969;-46
2021/08/22 12:42:05;;;;;;;;;;;;;;;19.59;62.53;100992.59;5116173;28;770;-59
2021/08/22 12:44:30;;;;;;;;;;;;;;;19.89;61.23;100987.94;5116715;28;811;-49
2021/08/22 12:46:57;;;;;;;;;;;;;;;19.64;61.73;100992.53;5116412;28;1009;-51
2021/08/22 12:49:23;;;;;;;;;;;;;;;19.50;62.29;100989.59;5116376;28;1648;-59
2021/08/22 12:51:49;;;;;;;;;;;;;;;19.27;61.42;100989.22;5116626;28;855;-54
2021/08/22 12:54:15;;;;;;;;;;;;;;;18.56;60.60;100984.94;5116177;28;854;-47
2021/08/22 12:56:40;;;;;;;;;;;;;;;19.19;61.95;100992.59;5098743;28;1366;-62